Time;durP1;ratioP1;P1;durP2;ratioP2;P2;SDS_P1;SDS_P2;PMS_P1;PMS_P2;Temp;Humidity;BMP_temperature;BMP_pressure;BME280_temperature;BME280_humidity;BME280_pressure;Samples;Min_cycle;Max_cycle;Signal;HPM_P1;HPM_P2
2022/02/23 00:01:25;;;;;;;10.88;2.55;;;5.60;99.90;;;;;;5037758;28;20709;-75
2022/02/23 00:03:51;;;;;;;10.27;1.85;;;5.60;99.90;;;;;;5036567;28;20056;-75
2022/02/23 00:06:18;;;;;;;11.73;1.95;;;5.60;99.90;;;;;;5037237;28;20049;-75
2022/02/23 00:08:43;;;;;;;13.63;2.30;;;5.50;99.90;;;;;;5037645;28;20483;-75
2022/02/23 00:11:11;;;;;;;17.13;2.05;;;5.50;99.90;;;;;;5038225;28;20036;-75
2022/02/23 00:13:37;;;;;;;13.07;3.95;;;5.50;99.90;;;;;;5038053;28;20041;-75
2022/02/23 00:16:04;;;;;;;13.43;2.05;;;5.50;99.90;;;;;;5037998;28;20028;-75
2022/02/23 00:18:29;;;;;;;17.35;3.20;;;5.50;99.90;;;;;;5037424;28;20576;-75
2022/02/23 00:20:55;;;;;;;14.98;2.63;;;5.50;99.90;;;;;;5036841;28;20151;-75
2022/02/23 00:23:20;;;;;;;;;;;5.50;99.90;;;;;;5037300;28;20033;-75
2022/02/23 00:26:23;;;;;;;18.40;1.90;;;5.50;99.90;;;;;;5038213;28;19916;-75
2022/02/23 00:28:49;;;;;;;11.07;2.90;;;5.50;99.90;;;;;;5038052;28;20024;-75
2022/02/23 00:31:14;;;;;;;11.63;2.00;;;5.50;99.90;;;;;;5039441;28;20029;-75
2022/02/23 00:33:40;;;;;;;9.15;2.30;;;5.50;99.90;;;;;;5041869;28;20039;-75
2022/02/23 00:36:06;;;;;;;15.38;2.53;;;5.50;99.90;;;;;;5040808;28;20022;-75
2022/02/23 00:38:31;;;;;;;19.98;2.70;;;5.40;99.90;;;;;;5040650;28;20037;-74
2022/02/23 00:40:57;;;;;;;8.60;2.25;;;5.50;99.90;;;;;;5040881;28;20094;-75
2022/02/23 00:43:25;;;;;;;9.90;2.33;;;5.50;99.90;;;;;;5040727;28;20124;-75
2022/02/23 00:45:50;;;;;;;21.15;2.97;;;5.50;99.90;;;;;;5041422;28;20398;-75
2022/02/23 00:48:16;;;;;;;10.05;2.83;;;5.50;99.90;;;;;;5041474;28;20028;-75
2022/02/23 00:50:41;;;;;;;14.88;2.80;;;5.50;99.90;;;;;;5040717;28;20033;-75
2022/02/23 00:53:07;;;;;;;15.25;2.35;;;5.50;99.90;;;;;;5040341;28;20021;-75
2022/02/23 00:55:32;;;;;;;14.57;3.03;;;5.60;99.90;;;;;;5040850;28;20041;-75
2022/02/23 00:57:58;;;;;;;23.60;3.42;;;5.60;99.90;;;;;;5039623;28;20037;-75
2022/02/23 01:00:23;;;;;;;16.00;2.47;;;5.70;99.90;;;;;;5040517;28;20551;-75
2022/02/23 01:02:49;;;;;;;16.50;3.65;;;5.70;99.90;;;;;;5040368;28;20029;-75
2022/02/23 01:05:14;;;;;;;11.43;2.63;;;5.80;99.90;;;;;;5040313;28;20032;-75
2022/02/23 01:07:40;;;;;;;14.60;3.13;;;5.80;99.90;;;;;;5041115;28;20026;-75
2022/02/23 01:10:09;;;;;;;18.45;3.75;;;5.90;99.90;;;;;;5039560;28;20037;-75
2022/02/23 01:12:35;;;;;;;12.82;3.33;;;5.90;99.90;;;;;;5040612;28;20180;-75
2022/02/23 01:15:00;;;;;;;20.60;3.33;;;6.00;99.90;;;;;;5039911;28;20119;-75
2022/02/23 01:17:26;;;;;;;13.00;2.83;;;6.00;99.90;;;;;;5040338;28;20049;-75
2022/02/23 01:19:51;;;;;;;18.10;3.78;;;6.00;99.90;;;;;;5040137;28;20025;-75
2022/02/23 01:22:17;;;;;;;18.38;3.83;;;6.00;99.90;;;;;;5040294;28;20033;-75
2022/02/23 01:24:42;;;;;;;14.07;3.30;;;6.00;99.90;;;;;;5041318;28;20037;-74
2022/02/23 01:27:08;;;;;;;;;;;6.00;99.90;;;;;;5039955;28;20494;-75
2022/02/23 01:29:33;;;;;;;13.93;2.88;;;6.10;99.90;;;;;;5040140;28;19913;-74
2022/02/23 01:31:59;;;;;;;12.00;2.70;;;6.10;99.90;;;;;;5040963;28;20029;-74
2022/02/23 01:34:24;;;;;;;15.02;3.78;;;6.10;99.90;;;;;;5040181;28;20171;-74
2022/02/23 01:36:50;;;;;;;17.70;3.63;;;6.10;99.90;;;;;;5039507;28;20395;-75
2022/02/23 01:39:15;;;;;;;15.50;2.97;;;6.20;99.90;;;;;;5040583;28;20044;-74
2022/02/23 01:41:41;;;;;;;18.33;3.58;;;6.20;99.90;;;;;;5040254;28;20029;-74
2022/02/23 01:44:07;;;;;;;15.52;3.35;;;6.20;99.90;;;;;;5040055;28;20033;-74
2022/02/23 01:46:32;;;;;;;17.73;3.28;;;6.20;99.90;;;;;;5040326;28;20516;-75
2022/02/23 01:48:57;;;;;;;;;;;6.10;99.90;;;;;;5040234;28;20033;-74
2022/02/23 01:51:23;;;;;;;12.98;2.28;;;6.10;99.90;;;;;;5039581;28;20381;-74
2022/02/23 01:53:48;;;;;;;14.73;3.30;;;6.20;99.90;;;;;;5038618;28;20567;-74
2022/02/23 01:56:14;;;;;;;11.98;3.50;;;6.20;99.90;;;;;;5041032;28;20481;-74
2022/02/23 01:58:39;;;;;;;21.52;4.60;;;6.20;99.90;;;;;;5039709;28;20368;-74
2022/02/23 02:01:05;;;;;;;16.80;3.33;;;6.20;99.90;;;;;;5039753;28;20029;-74
2022/02/23 02:03:30;;;;;;;;;;;6.10;99.90;;;;;;5040089;28;20044;-74
2022/02/23 02:05:56;;;;;;;17.52;3.65;;;6.10;99.90;;;;;;5038705;28;19912;-74
2022/02/23 02:08:21;;;;;;;13.27;2.67;;;6.20;99.90;;;;;;5039147;28;20485;-74
2022/02/23 02:10:47;;;;;;;17.00;2.58;;;6.10;99.90;;;;;;5039110;28;20033;-74
2022/02/23 02:13:13;;;;;;;;;;;6.10;99.90;;;;;;5040108;28;20051;-74
2022/02/23 02:15:38;;;;;;;13.50;2.95;;;6.20;99.90;;;;;;5039526;28;19917;-74
2022/02/23 02:18:04;;;;;;;11.88;2.47;;;6.20;99.90;;;;;;5038063;28;20028;-74
2022/02/23 02:20:29;;;;;;;18.48;3.55;;;6.20;99.90;;;;;;5039576;28;20040;-74
2022/02/23 02:22:55;;;;;;;26.45;7.22;;;6.10;99.90;;;;;;5039434;28;20022;-74
2022/02/23 02:25:20;;;;;;;;;;;6.10;99.90;;;;;;5039337;28;20390;-74
2022/02/23 02:27:46;;;;;;;14.48;2.97;;;6.10;99.90;;;;;;5037910;28;20296;-74
2022/02/23 02:30:11;;;;;;;;;;;6.10;99.90;;;;;;5039049;28;20036;-74
2022/02/23 02:32:37;;;;;;;17.23;3.88;;;6.10;99.90;;;;;;5039869;28;19920;-74
2022/02/23 02:35:03;;;;;;;11.60;2.38;;;6.10;99.90;;;;;;5038594;28;20067;-74
2022/02/23 02:37:28;;;;;;;19.65;3.20;;;6.10;99.90;;;;;;5038484;28;20125;-74
2022/02/23 02:39:54;;;;;;;18.67;3.90;;;6.10;99.90;;;;;;5038798;28;20021;-74
2022/02/23 02:42:19;;;;;;;11.35;2.65;;;6.10;99.90;;;;;;5039528;28;20080;-74
2022/02/23 02:44:45;;;;;;;15.23;3.03;;;6.10;99.90;;;;;;5039534;28;20029;-74
2022/02/23 02:47:12;;;;;;;24.08;3.67;;;6.10;99.90;;;;;;5040531;28;20055;-74
2022/02/23 02:49:38;;;;;;;17.30;2.75;;;6.10;99.90;;;;;;5038973;28;20059;-74
2022/02/23 02:52:05;;;;;;;19.20;4.70;;;6.10;99.90;;;;;;5039310;28;20398;-74
2022/02/23 02:54:32;;;;;;;16.52;3.33;;;6.10;99.90;;;;;;5038607;28;20406;-74
2022/02/23 02:56:57;;;;;;;16.08;3.17;;;6.10;99.90;;;;;;5039137;28;20067;-74
2022/02/23 02:59:23;;;;;;;19.20;3.60;;;6.10;99.90;;;;;;5038962;28;20057;-75
2022/02/23 03:01:48;;;;;;;;;;;6.10;99.90;;;;;;5038771;28;20082;-74
2022/02/23 03:04:14;;;;;;;25.80;6.45;;;6.10;99.90;;;;;;5039715;28;19916;-75
2022/02/23 03:06:40;;;;;;;19.65;4.72;;;6.10;99.90;;;;;;5039211;28;20029;-75
2022/02/23 03:09:06;;;;;;;18.02;3.97;;;6.10;99.90;;;;;;5039407;28;20033;-74
2022/02/23 03:11:32;;;;;;;15.48;2.88;;;6.10;99.90;;;;;;5039880;28;20119;-74
2022/02/23 03:13:58;;;;;;;20.40;2.33;;;6.00;99.90;;;;;;5038581;28;20121;-75
2022/02/23 03:16:23;;;;;;;;;;;5.90;99.90;;;;;;5039236;28;20448;-75
2022/02/23 03:18:49;;;;;;;16.17;2.70;;;5.90;99.90;;;;;;5037616;28;20452;-74
2022/02/23 03:21:14;;;;;;;22.48;3.78;;;5.90;99.90;;;;;;5040344;28;20021;-74
2022/02/23 03:23:40;;;;;;;;;;;5.80;99.90;;;;;;5039732;28;20029;-74
2022/02/23 03:26:09;;;;;;;21.65;4.15;;;5.90;99.90;;;;;;5038498;28;20353;-74
2022/02/23 03:28:35;;;;;;;15.50;2.85;;;5.80;99.90;;;;;;5038635;28;20056;-74
2022/02/23 03:31:01;;;;;;;16.17;3.55;;;5.80;99.90;;;;;;5037937;28;20029;-75
2022/02/23 03:33:26;;;;;;;16.83;4.95;;;5.80;99.90;;;;;;5039140;28;20038;-75
2022/02/23 03:35:52;;;;;;;8.20;2.75;;;5.80;99.90;;;;;;5037685;28;20405;-75
2022/02/23 03:38:17;;;;;;;17.55;1.88;;;5.70;99.90;;;;;;5039343;28;20119;-75
2022/02/23 03:40:43;;;;;;;15.18;2.05;;;5.70;99.90;;;;;;5038900;28;20125;-75
2022/02/23 03:43:09;;;;;;;23.27;4.45;;;5.70;99.90;;;;;;5038050;28;20039;-75
2022/02/23 03:45:35;;;;;;;13.73;2.72;;;5.70;99.90;;;;;;5038030;28;20025;-75
2022/02/23 03:48:01;;;;;;;15.82;2.65;;;5.70;99.90;;;;;;5038104;28;20137;-75
2022/02/23 03:50:26;;;;;;;;;;;5.80;99.90;;;;;;5038641;28;20060;-75
2022/02/23 03:52:52;;;;;;;10.65;2.78;;;5.80;99.90;;;;;;5038127;28;20255;-75
2022/02/23 03:55:18;;;;;;;16.05;2.42;;;5.80;99.90;;;;;;5037555;28;20020;-75
2022/02/23 03:57:44;;;;;;;;;;;5.80;99.90;;;;;;5037365;28;20041;-76
2022/02/23 04:00:12;;;;;;;13.90;2.33;;;5.80;99.90;;;;;;5036772;28;20001;-75
2022/02/23 04:02:38;;;;;;;19.30;2.25;;;5.90;99.90;;;;;;5038244;28;20106;-75
2022/02/23 04:05:06;;;;;;;10.45;2.70;;;5.90;99.90;;;;;;5036411;28;20400;-75
2022/02/23 04:07:32;;;;;;;13.50;3.20;;;5.90;99.90;;;;;;5037915;28;20060;-75
2022/02/23 04:09:57;;;;;;;17.42;2.45;;;5.90;99.90;;;;;;5037004;28;20057;-76
2022/02/23 04:12:24;;;;;;;10.80;1.77;;;5.90;99.90;;;;;;5037408;28;20033;-76
2022/02/23 04:14:49;;;;;;;10.20;2.78;;;6.00;99.90;;;;;;5037649;28;20075;-75
2022/02/23 04:17:15;;;;;;;12.60;3.65;;;6.00;99.90;;;;;;5038183;28;20037;-75
2022/02/23 04:19:41;;;;;;;15.80;4.15;;;6.00;99.90;;;;;;5037867;28;20486;-75
2022/02/23 04:22:06;;;;;;;;;;;6.00;99.90;;;;;;5037379;28;20159;-75
2022/02/23 04:24:32;;;;;;;10.70;2.80;;;6.00;99.90;;;;;;5037580;28;20335;-75
2022/02/23 04:26:59;;;;;;;14.00;4.25;;;6.00;99.90;;;;;;5035472;28;20028;-75
2022/02/23 04:29:26;;;;;;;9.18;1.88;;;6.00;99.90;;;;;;5038596;28;20124;-75
2022/02/23 04:31:51;;;;;;;15.57;2.38;;;6.00;99.90;;;;;;5037874;28;20091;-75
2022/02/23 04:34:17;;;;;;;8.77;2.40;;;6.00;99.90;;;;;;5037625;28;20501;-76
2022/02/23 04:36:42;;;;;;;15.70;2.42;;;5.90;99.90;;;;;;5036878;28;20735;-75
2022/02/23 04:39:08;;;;;;;14.50;4.85;;;5.90;99.90;;;;;;5036173;28;20032;-75
2022/02/23 04:41:34;;;;;;;;;;;5.90;99.90;;;;;;5037724;28;20541;-75
2022/02/23 04:43:59;;;;;;;18.60;3.13;;;5.90;99.90;;;;;;5036134;28;20044;-75
2022/02/23 04:46:25;;;;;;;12.23;2.05;;;5.80;99.90;;;;;;5038069;28;20128;-75
2022/02/23 04:48:51;;;;;;;10.27;2.40;;;5.90;99.90;;;;;;5037001;28;20382;-75
2022/02/23 04:51:17;;;;;;;15.70;2.58;;;5.80;99.90;;;;;;5038691;28;20482;-75
2022/02/23 04:53:43;;;;;;;15.15;3.22;;;5.90;99.90;;;;;;5038346;28;20363;-75
2022/02/23 04:56:10;;;;;;;20.02;3.83;;;5.80;99.90;;;;;;5037390;28;20021;-75
2022/02/23 04:58:36;;;;;;;17.85;3.40;;;5.80;99.90;;;;;;5037311;28;20393;-75
2022/02/23 05:01:02;;;;;;;11.77;2.00;;;5.80;99.90;;;;;;5036344;28;20577;-75
2022/02/23 05:03:27;;;;;;;;;;;5.80;99.90;;;;;;5038192;28;20033;-75
2022/02/23 05:05:53;;;;;;;13.95;2.20;;;5.80;99.90;;;;;;5037938;28;19920;-74
2022/02/23 05:08:19;;;;;;;;;;;5.80;99.90;;;;;;5037458;28;20029;-74
2022/02/23 05:10:44;;;;;;;14.35;2.92;;;5.70;99.90;;;;;;5036487;28;19913;-74
2022/02/23 05:13:10;;;;;;;11.65;3.55;;;5.80;99.90;;;;;;5036495;28;20067;-74
2022/02/23 05:15:36;;;;;;;9.85;2.25;;;5.70;99.90;;;;;;5037356;28;20519;-74
2022/02/23 05:18:06;;;;;;;14.25;2.30;;;5.70;99.90;;;;;;5039129;28;20028;-74
2022/02/23 05:20:32;;;;;;;25.23;4.00;;;5.70;99.90;;;;;;5041267;28;20448;-74
2022/02/23 05:22:58;;;;;;;17.90;4.07;;;5.60;99.90;;;;;;5041627;28;20099;-74
2022/02/23 05:25:24;;;;;;;13.60;2.63;;;5.60;99.90;;;;;;5040986;28;20064;-74
2022/02/23 05:27:50;;;;;;;13.23;4.85;;;5.60;99.90;;;;;;5039055;28;20029;-74
2022/02/23 05:30:16;;;;;;;13.05;3.05;;;5.50;99.90;;;;;;5040645;28;20029;-77
2022/02/23 05:32:42;;;;;;;15.23;3.78;;;5.50;99.90;;;;;;5040871;28;20036;-77
2022/02/23 05:35:09;;;;;;;11.13;2.50;;;5.50;99.90;;;;;;5040007;28;20447;-76
2022/02/23 05:37:34;;;;;;;12.88;2.88;;;5.50;99.90;;;;;;5040019;28;20375;-78
2022/02/23 05:40:00;;;;;;;12.25;2.10;;;5.50;99.90;;;;;;5039597;28;20036;-78
2022/02/23 05:42:26;;;;;;;24.40;6.22;;;5.40;99.90;;;;;;5039299;28;20033;-77
2022/02/23 05:44:51;;;;;;;15.40;2.25;;;5.50;99.90;;;;;;5040035;28;20041;-75
2022/02/23 05:47:17;;;;;;;11.35;2.58;;;5.50;99.90;;;;;;5040422;28;20045;-76
2022/02/23 05:49:42;;;;;;;12.30;2.47;;;5.50;99.90;;;;;;5039510;28;20082;-76
2022/02/23 05:52:08;;;;;;;18.75;3.25;;;5.40;99.90;;;;;;5039443;28;20037;-77
2022/02/23 05:54:33;;;;;;;17.25;2.33;;;5.40;99.90;;;;;;5039591;28;20069;-72
2022/02/23 05:57:00;;;;;;;14.05;3.08;;;5.40;99.90;;;;;;5038521;28;20033;-70
2022/02/23 05:59:25;;;;;;;13.10;4.22;;;5.40;99.90;;;;;;5038239;28;20098;-71
2022/02/23 06:01:53;;;;;;;12.85;2.97;;;5.40;99.90;;;;;;5039211;28;20072;-72
2022/02/23 06:04:19;;;;;;;16.00;3.55;;;5.40;99.90;;;;;;5039365;28;20059;-71
2022/02/23 06:06:44;;;;;;;19.17;3.05;;;5.40;99.90;;;;;;5038944;28;20702;-71
2022/02/23 06:09:10;;;;;;;21.50;3.25;;;5.50;99.90;;;;;;5038879;28;20446;-72
2022/02/23 06:11:38;;;;;;;14.82;2.58;;;5.40;99.90;;;;;;5037610;28;20032;-71
2022/02/23 06:14:05;;;;;;;12.88;4.03;;;5.50;99.90;;;;;;5036464;28;20389;-73
2022/02/23 06:16:31;;;;;;;16.17;2.90;;;5.50;99.90;;;;;;5038155;28;20041;-71
2022/02/23 06:18:56;;;;;;;16.42;4.13;;;5.50;99.90;;;;;;5039227;28;20048;-69
2022/02/23 06:21:23;;;;;;;17.90;3.28;;;5.70;99.90;;;;;;5037036;28;20037;-71
2022/02/23 06:23:48;;;;;;;23.83;3.47;;;6.30;99.90;;;;;;5039429;28;20425;-70
2022/02/23 06:26:14;;;;;;;20.02;5.57;;;6.40;99.90;;;;;;5037913;28;20040;-71
2022/02/23 06:28:40;;;;;;;14.20;2.58;;;6.30;99.90;;;;;;5039044;28;20027;-71
2022/02/23 06:31:06;;;;;;;17.45;4.43;;;6.10;99.90;;;;;;5040336;28;20032;-70
2022/02/23 06:33:32;;;;;;;29.02;4.30;;;6.10;99.90;;;;;;5040123;28;20053;-71
2022/02/23 06:35:57;;;;;;;15.30;2.75;;;6.00;99.90;;;;;;5037521;28;20113;-71
2022/02/23 06:38:23;;;;;;;;;;;5.90;99.90;;;;;;5040805;28;20363;-71
2022/02/23 06:40:49;;;;;;;9.77;2.67;;;5.90;99.90;;;;;;5037566;28;20313;-71
2022/02/23 06:43:16;;;;;;;14.40;3.08;;;5.80;99.90;;;;;;5039338;28;20021;-71
2022/02/23 06:45:48;;;;;;;12.48;2.78;;;5.80;99.90;;;;;;5039076;28;20033;-71
2022/02/23 06:48:13;;;;;;;19.02;3.33;;;5.80;99.90;;;;;;5038552;28;20047;-71
2022/02/23 06:50:42;;;;;;;21.33;3.40;;;5.80;99.90;;;;;;5037892;28;20028;-71
2022/02/23 06:53:07;;;;;;;14.93;3.35;;;5.80;99.90;;;;;;5039263;28;20037;-71
2022/02/23 06:55:34;;;;;;;17.27;2.97;;;5.80;99.90;;;;;;5038165;28;20029;-71
2022/02/23 06:58:00;;;;;;;16.17;2.63;;;5.80;99.90;;;;;;5039475;28;20035;-71
2022/02/23 07:00:25;;;;;;;19.55;3.50;;;5.80;99.90;;;;;;5037406;28;20425;-71
2022/02/23 07:02:53;;;;;;;20.17;3.35;;;5.90;99.90;;;;;;5037750;28;20025;-71
2022/02/23 07:05:19;;;;;;;43.25;3.33;;;5.80;99.90;;;;;;5040380;28;20047;-74
2022/02/23 07:07:45;;;;;;;24.27;3.72;;;5.90;99.90;;;;;;5039342;28;20030;-76
2022/02/23 07:10:28;;;;;;;21.27;3.42;;;6.20;99.90;;;;;;5038146;28;20098;-76
2022/02/23 07:12:54;;;;;;;11.52;3.58;;;6.60;99.90;;;;;;5037224;28;20029;-71
2022/02/23 07:15:22;;;;;;;11.43;2.45;;;6.70;99.90;;;;;;5033499;28;20444;-72
2022/02/23 07:17:48;;;;;;;18.20;2.88;;;6.70;99.90;;;;;;5038572;28;20037;-70
2022/02/23 07:20:14;;;;;;;17.50;3.65;;;6.70;99.90;;;;;;5037338;28;20510;-70
2022/02/23 07:22:40;;;;;;;27.27;3.80;;;6.70;99.90;;;;;;5036951;28;20109;-70
2022/02/23 07:25:07;;;;;;;15.88;4.15;;;6.60;99.90;;;;;;5038832;28;20151;-72
2022/02/23 07:27:34;;;;;;;13.30;3.63;;;6.60;99.90;;;;;;5038315;28;20033;-71
2022/02/23 07:30:00;;;;;;;11.80;2.35;;;6.70;99.90;;;;;;5037190;28;20402;-71
2022/02/23 07:32:31;;;;;;;17.95;4.43;;;7.00;99.90;;;;;;5038343;28;20044;-70
2022/02/23 07:34:57;;;;;;;21.42;4.60;;;7.20;99.90;;;;;;5037462;28;20205;-72
2022/02/23 07:37:22;;;;;;;21.13;2.75;;;7.40;99.90;;;;;;5037888;28;20051;-72
2022/02/23 07:39:52;;;;;;;11.90;2.83;;;7.40;99.90;;;;;;5037719;28;20051;-72
2022/02/23 07:42:19;;;;;;;11.85;2.10;;;7.50;99.90;;;;;;5037201;28;20045;-71
2022/02/23 07:44:45;;;;;;;16.08;3.63;;;7.40;99.90;;;;;;5037694;28;20527;-72
2022/02/23 07:47:11;;;;;;;29.20;4.90;;;7.50;99.90;;;;;;5037764;28;20033;-72
2022/02/23 07:49:37;;;;;;;12.50;3.35;;;7.60;99.90;;;;;;5037002;28;20481;-71
2022/02/23 07:52:03;;;;;;;;;;;7.70;99.90;;;;;;5037682;28;20040;-71
2022/02/23 07:54:28;;;;;;;14.60;4.03;;;7.80;99.90;;;;;;5037898;28;20346;-70
2022/02/23 07:56:54;;;;;;;22.40;4.22;;;7.90;99.90;;;;;;5038610;28;20033;-70
2022/02/23 07:59:19;;;;;;;11.75;2.72;;;7.90;99.90;;;;;;5037542;28;20478;-71
2022/02/23 08:01:45;;;;;;;;;;;8.00;99.90;;;;;;5036441;28;20070;-70
2022/02/23 08:04:11;;;;;;;10.75;2.15;;;8.10;99.90;;;;;;5038123;28;19917;-70
2022/02/23 08:06:39;;;;;;;17.70;3.08;;;8.00;99.90;;;;;;5036314;28;20036;-70
2022/02/23 08:09:07;;;;;;;14.52;3.15;;;8.00;99.90;;;;;;5036809;28;20033;-70
2022/02/23 08:11:36;;;;;;;15.38;3.35;;;8.00;99.90;;;;;;5036659;28;20029;-71
2022/02/23 08:14:03;;;;;;;11.90;2.90;;;7.90;99.90;;;;;;5035949;28;20286;-69
2022/02/23 08:19:32;;;;;;;16.45;4.13;;;8.10;99.90;;;;;;5038251;28;20028;-70
2022/02/23 08:22:10;;;;;;;22.73;3.80;;;8.10;99.90;;;;;;5035898;28;20037;-69
2022/02/23 08:24:39;;;;;;;16.73;4.75;;;8.10;99.90;;;;;;5038499;28;20450;-71
2022/02/23 08:27:06;;;;;;;23.48;5.38;;;8.20;99.90;;;;;;5036482;28;20386;-71
2022/02/23 08:29:31;;;;;;;14.10;3.42;;;8.20;99.90;;;;;;5036626;28;20083;-69
2022/02/23 08:31:57;;;;;;;;;;;8.20;99.90;;;;;;5037294;28;20424;-69
2022/02/23 08:34:23;;;;;;;16.35;3.33;;;8.30;99.90;;;;;;5036640;28;19909;-69
2022/02/23 08:36:48;;;;;;;;;;;8.30;99.90;;;;;;5036991;28;20022;-69
2022/02/23 08:39:17;;;;;;;18.83;3.42;;;8.30;99.90;;;;;;5038501;28;19917;-70
2022/02/23 08:41:44;;;;;;;22.67;3.88;;;8.40;99.90;;;;;;5036749;28;20470;-69
2022/02/23 08:44:11;;;;;;;17.10;3.78;;;8.40;99.90;;;;;;5036407;28;20037;-70
2022/02/23 08:46:38;;;;;;;14.63;3.38;;;8.50;99.90;;;;;;5037262;28;20029;-68
2022/02/23 08:49:07;;;;;;;21.90;4.25;;;8.60;99.90;;;;;;5038073;28;20034;-67
2022/02/23 08:51:33;;;;;;;15.50;3.05;;;8.80;99.90;;;;;;5037607;28;20558;-67
2022/02/23 08:53:58;;;;;;;14.63;3.80;;;8.90;99.90;;;;;;5040092;28;20414;-68
2022/02/23 08:56:24;;;;;;;;;;;9.00;99.90;;;;;;5041224;28;20029;-69
2022/02/23 08:58:50;;;;;;;14.30;2.63;;;8.90;99.90;;;;;;5040470;28;19999;-70
2022/02/23 09:01:15;;;;;;;14.43;2.92;;;8.80;99.90;;;;;;5039647;28;20029;-69
2022/02/23 09:03:41;;;;;;;;;;;8.60;99.90;;;;;;5039539;28;20028;-70
2022/02/23 09:06:07;;;;;;;18.05;4.80;;;8.40;99.90;;;;;;5041389;28;19943;-70
2022/02/23 09:08:33;;;;;;;;;;;8.30;99.90;;;;;;5040987;28;20397;-69
2022/02/23 09:10:58;;;;;;;16.70;3.47;;;8.10;99.90;;;;;;5040445;28;19932;-69
2022/02/23 09:13:24;;;;;;;;;;;8.00;99.90;;;;;;5040667;28;20101;-69
2022/02/23 09:15:49;;;;;;;14.93;4.28;;;7.90;99.90;;;;;;5040632;28;19913;-69
2022/02/23 09:18:15;;;;;;;21.38;3.13;;;7.80;99.90;;;;;;5040667;28;20520;-70
2022/02/23 09:20:41;;;;;;;;;;;7.80;99.90;;;;;;5041232;28;20154;-70
2022/02/23 09:23:06;;;;;;;20.25;3.63;;;7.80;99.90;;;;;;5039756;28;19908;-69
2022/02/23 09:25:32;;;;;;;;;;;7.80;99.90;;;;;;5040204;28;20057;-69
2022/02/23 09:27:57;;;;;;;19.55;3.63;;;7.80;99.90;;;;;;5040242;28;19909;-70
2022/02/23 09:30:23;;;;;;;;;;;7.80;99.90;;;;;;5039494;28;20669;-70
2022/02/23 09:32:49;;;;;;;18.55;3.20;;;7.90;99.90;;;;;;5040202;28;20279;-71
2022/02/23 09:35:16;;;;;;;29.30;4.90;;;7.90;99.90;;;;;;5040361;28;20025;-71
2022/02/23 09:37:42;;;;;;;11.35;2.70;;;7.90;99.90;;;;;;5039846;28;20090;-72
2022/02/23 09:40:09;;;;;;;;;;;7.90;99.90;;;;;;5040293;28;20137;-71
2022/02/23 09:42:35;;;;;;;14.20;2.65;;;7.90;99.90;;;;;;5040785;28;19908;-70
2022/02/23 09:45:03;;;;;;;16.80;3.15;;;7.90;99.90;;;;;;5040115;28;20043;-70
2022/02/23 09:47:32;;;;;;;15.90;3.47;;;8.00;99.90;;;;;;5040515;28;20032;-71
2022/02/23 09:50:03;;;;;;;10.55;2.85;;;8.20;99.90;;;;;;5039782;28;20041;-71
2022/02/23 09:52:28;;;;;;;11.55;3.58;;;8.20;99.90;;;;;;5040445;28;20033;-70
2022/02/23 09:54:57;;;;;;;;;;;8.20;99.90;;;;;;5039548;28;20036;-70
2022/02/23 09:57:24;;;;;;;16.85;3.67;;;8.10;99.90;;;;;;5040875;28;19909;-71
2022/02/23 09:59:50;;;;;;;8.32;2.70;;;8.10;99.90;;;;;;5040303;28;20143;-71
2022/02/23 10:02:15;;;;;;;;;;;8.10;99.90;;;;;;5039671;28;20064;-71
2022/02/23 10:04:41;;;;;;;16.27;3.90;;;8.10;99.90;;;;;;5038738;28;20277;-69
2022/02/23 10:07:07;;;;;;;;;;;8.10;99.90;;;;;;5039235;28;20057;-70
2022/02/23 10:09:44;;;;;;;20.13;4.63;;;8.20;99.90;;;;;;5040225;28;19924;-70
2022/02/23 10:12:20;;;;;;;18.40;3.25;;;8.20;99.90;;;;;;5037154;28;20067;-70
2022/02/23 10:14:46;;;;;;;16.60;3.03;;;8.30;99.90;;;;;;5038926;28;20600;-70
2022/02/23 10:17:13;;;;;;;13.18;2.95;;;8.30;99.90;;;;;;5039869;28;20028;-70
2022/02/23 10:19:50;;;;;;;16.40;3.88;;;8.30;99.90;;;;;;5040112;28;20028;-70
2022/02/23 10:22:21;;;;;;;17.60;3.15;;;8.30;99.90;;;;;;5040385;28;20505;-70
2022/02/23 10:24:47;;;;;;;19.63;3.28;;;8.30;99.90;;;;;;5039075;28;20040;-73
2022/02/23 10:27:13;;;;;;;;;;;8.30;99.90;;;;;;5040429;28;20026;-69
2022/02/23 10:29:56;;;;;;;10.98;2.53;;;8.30;99.90;;;;;;5038661;28;19913;-70
2022/02/23 10:32:24;;;;;;;11.40;2.58;;;8.40;99.90;;;;;;5039772;28;20604;-70
2022/02/23 10:34:55;;;;;;;18.50;3.85;;;8.50;99.90;;;;;;5039396;28;20033;-68
2022/02/23 10:37:22;;;;;;;17.25;2.53;;;8.50;99.90;;;;;;5038484;28;20039;-70
2022/02/23 10:39:52;;;;;;;14.48;3.85;;;8.50;99.90;;;;;;5039476;28;20033;-71
2022/02/23 10:42:21;;;;;;;14.68;2.70;;;8.50;99.90;;;;;;5038282;28;20398;-71
2022/02/23 10:44:52;;;;;;;20.48;3.33;;;8.50;99.80;;;;;;5039303;28;20029;-71
2022/02/23 10:47:22;;;;;;;25.70;3.65;;;8.50;99.80;;;;;;5038679;28;20144;-70
2022/02/23 10:50:07;;;;;;;13.30;2.85;;;8.50;99.90;;;;;;5038705;28;20043;-71
2022/02/23 10:52:35;;;;;;;11.10;3.38;;;8.60;99.90;;;;;;5039300;28;20025;-70
2022/02/23 10:55:14;;;;;;;18.08;3.42;;;8.60;99.80;;;;;;5039008;28;20564;-70
2022/02/23 10:57:47;;;;;;;13.32;4.07;;;8.60;99.90;;;;;;5039304;28;20482;-70
2022/02/23 11:00:22;;;;;;;15.40;2.85;;;8.80;99.90;;;;;;5038269;28;20455;-70
2022/02/23 11:02:49;;;;;;;21.85;3.58;;;8.80;99.40;;;;;;5039350;28;20449;-70
2022/02/23 11:05:15;;;;;;;16.20;4.60;;;8.90;99.30;;;;;;5039015;28;20160;-70
2022/02/23 11:07:44;;;;;;;;;;;9.00;98.90;;;;;;5038972;28;20024;-71
2022/02/23 11:10:15;;;;;;;20.65;4.10;;;9.00;98.80;;;;;;5038961;28;19913;-71
2022/02/23 11:12:49;;;;;;;17.25;3.47;;;9.00;98.50;;;;;;5037144;28;20435;-72
2022/02/23 11:15:19;;;;;;;14.93;3.75;;;9.00;98.80;;;;;;5037697;28;20032;-68
2022/02/23 11:17:46;;;;;;;15.90;2.55;;;9.10;98.70;;;;;;5038611;28;20037;-68
2022/02/23 11:20:21;;;;;;;9.48;2.75;;;9.10;98.70;;;;;;5039616;28;20105;-70
2022/02/23 11:22:56;;;;;;;12.00;3.30;;;9.10;98.30;;;;;;5038633;28;20029;-69
2022/02/23 11:25:26;;;;;;;12.60;4.70;;;9.20;98.50;;;;;;5039036;28;20037;-69
2022/02/23 11:28:29;;;;;;;8.95;2.55;;;9.40;98.80;;;;;;5038330;28;20029;-70
2022/02/23 11:31:02;;;;;;;15.35;2.67;;;9.50;98.10;;;;;;5010267;28;20124;-70
2022/02/23 11:33:46;;;;;;;12.98;3.42;;;9.60;98.20;;;;;;5037602;28;20036;-70
2022/02/23 11:36:42;;;;;;;22.73;4.05;;;9.60;97.90;;;;;;5037658;28;20069;-70
2022/02/23 11:39:16;;;;;;;13.23;2.72;;;9.60;97.70;;;;;;5036047;28;20854;-71
2022/02/23 11:41:48;;;;;;;14.77;2.70;;;9.50;97.80;;;;;;5037435;28;20055;-72
2022/02/23 11:44:16;;;;;;;17.27;2.40;;;9.50;97.50;;;;;;5037163;28;20055;-71
2022/02/23 11:46:50;;;;;;;10.55;3.03;;;9.50;97.50;;;;;;5039280;28;20129;-71
2022/02/23 11:49:16;;;;;;;12.20;2.92;;;9.50;97.40;;;;;;5038065;28;20025;-71
2022/02/23 11:51:43;;;;;;;12.02;3.03;;;9.50;97.50;;;;;;5037407;28;20029;-72
2022/02/23 11:54:09;;;;;;;11.52;1.90;;;9.50;97.40;;;;;;5036408;28;20359;-71
2022/02/23 11:56:38;;;;;;;;;;;9.50;97.60;;;;;;5037963;28;20031;-71
2022/02/23 11:59:04;;;;;;;9.73;2.60;;;9.50;97.30;;;;;;5036229;28;19912;-72
2022/02/23 12:01:43;;;;;;;;;;;9.40;97.20;;;;;;5038539;28;20025;-69
2022/02/23 12:04:14;;;;;;;19.67;3.28;;;9.50;97.00;;;;;;5037524;28;20349;-70
2022/02/23 12:07:11;;;;;;;10.55;2.17;;;9.50;96.70;;;;;;5037164;28;20071;-70
2022/02/23 12:10:06;;;;;;;6.75;2.17;;;9.60;96.60;;;;;;5037168;28;20029;-70
2022/02/23 12:12:32;;;;;;;12.02;2.22;;;9.70;96.60;;;;;;5037754;28;20506;-70
2022/02/23 12:15:00;;;;;;;7.82;1.80;;;9.80;96.00;;;;;;5037938;28;20102;-70
2022/02/23 12:17:59;;;;;;;13.13;2.47;;;9.90;96.40;;;;;;5038366;28;20112;-70
2022/02/23 12:20:37;;;;;;;7.00;1.58;;;10.10;95.50;;;;;;5034088;28;20389;-71
2022/02/23 12:23:10;;;;;;;11.60;2.10;;;10.20;95.30;;;;;;5036519;28;20082;-70
2022/02/23 12:26:11;;;;;;;11.20;1.70;;;10.30;95.00;;;;;;5037517;28;20062;-71
2022/02/23 12:28:39;;;;;;;14.00;3.80;;;10.30;94.60;;;;;;5032677;28;20053;-70
2022/02/23 12:31:07;;;;;;;15.75;2.08;;;10.30;94.70;;;;;;5039785;28;20038;-71
2022/02/23 12:33:35;;;;;;;5.78;2.58;;;10.30;94.40;;;;;;5042954;28;20183;-71
2022/02/23 12:36:05;;;;;;;18.85;2.78;;;10.30;94.80;;;;;;5041223;28;20035;-70
2022/02/23 12:38:33;;;;;;;11.57;1.98;;;10.30;94.50;;;;;;5041660;28;20032;-70
2022/02/23 12:41:00;;;;;;;4.72;1.42;;;10.20;94.70;;;;;;5040197;28;20067;-71
2022/02/23 12:43:26;;;;;;;11.40;2.42;;;10.20;95.00;;;;;;5041965;28;20391;-70
2022/02/23 12:45:55;;;;;;;9.43;1.60;;;10.30;95.20;;;;;;5040187;28;20028;-71
2022/02/23 12:48:25;;;;;;;10.80;1.80;;;10.30;95.20;;;;;;5041000;28;20040;-71
2022/02/23 12:51:01;;;;;;;7.43;1.73;;;10.40;94.90;;;;;;5039380;28;20087;-72
2022/02/23 12:53:46;;;;;;;6.70;1.40;;;10.40;94.00;;;;;;5041517;28;20033;-72
2022/02/23 12:56:39;;;;;;;6.47;0.90;;;10.50;93.80;;;;;;5040032;28;20025;-73
2022/02/23 12:59:11;;;;;;;8.13;1.42;;;10.60;93.20;;;;;;5040135;28;20048;-72
2022/02/23 13:01:47;;;;;;;13.05;1.52;;;10.70;93.30;;;;;;5040340;28;20152;-71
2022/02/23 13:04:18;;;;;;;9.85;1.95;;;10.80;92.60;;;;;;5040311;28;20224;-71